createdAt,value
2023-03-23T00:03:07.961Z,13.7
2023-03-23T00:13:14.214Z,13.7
2023-03-23T00:23:20.391Z,13.7
2023-03-23T00:33:26.569Z,13.6
2023-03-23T00:43:32.812Z,13.5
2023-03-23T00:53:39.059Z,13.6
2023-03-23T01:03:45.233Z,13.5
2023-03-23T01:13:51.383Z,13.4
2023-03-23T01:23:57.559Z,13.3
2023-03-23T01:34:02.824Z,13.1
2023-03-23T01:44:09.245Z,12.7
2023-03-23T01:54:15.266Z,12.5
2023-03-23T02:04:21.517Z,12.4
2023-03-23T02:14:27.621Z,12.3
2023-03-23T02:24:34.027Z,12.4
2023-03-23T02:34:40.047Z,12.5
2023-03-23T02:44:46.247Z,12.7
2023-03-23T02:54:52.445Z,12.5
2023-03-23T03:04:58.666Z,11.9
2023-03-23T03:15:04.889Z,11.8
2023-03-23T03:35:17.358Z,11.5
2023-03-23T03:45:22.512Z,11.5
2023-03-23T03:55:28.849Z,11.6
2023-03-23T04:15:41.146Z,11.9
2023-03-23T04:25:47.351Z,11.9
2023-03-23T04:35:53.664Z,11.8
2023-03-23T04:45:59.773Z,11.9
2023-03-23T04:56:06.098Z,12.1
2023-03-23T05:06:12.210Z,12.3
2023-03-23T05:16:18.578Z,12.4
2023-03-23T05:26:24.711Z,12.3
2023-03-23T05:36:30.901Z,12.2
2023-03-23T05:46:37.158Z,12.2
2023-03-23T05:56:42.493Z,12.1
2023-03-23T06:06:48.631Z,12.1
2023-03-23T06:16:54.873Z,12.2
2023-03-23T06:27:01.065Z,12.1
2023-03-23T06:37:07.255Z,12.1
2023-03-23T06:47:13.300Z,12.4
2023-03-23T06:57:19.740Z,12.4
2023-03-23T07:07:25.844Z,12.4
2023-03-23T07:17:32.069Z,12.3
2023-03-23T07:27:38.134Z,12.1
2023-03-23T07:37:44.510Z,12.2
2023-03-23T07:47:50.714Z,12.3
2023-03-23T07:57:56.795Z,12.4
2023-03-23T08:08:02.143Z,12.5
2023-03-23T08:18:08.369Z,12.5
2023-03-23T08:28:14.584Z,12.6
2023-03-23T08:38:20.761Z,12.8
2023-03-23T08:48:26.958Z,13
2023-03-23T08:58:33.197Z,13.2
2023-03-23T09:08:39.262Z,13.4
2023-03-23T09:18:45.454Z,13.5
2023-03-23T09:28:51.838Z,13.8
2023-03-23T09:38:57.985Z,14.1
2023-03-23T09:49:04.073Z,14.7
2023-03-23T09:59:10.378Z,15
2023-03-23T10:09:16.483Z,14.3
2023-03-23T10:19:21.810Z,14.2
2023-03-23T10:29:28.091Z,14.3
2023-03-23T10:39:34.160Z,14.2
2023-03-23T10:49:40.358Z,14.8
2023-03-23T10:59:46.721Z,15
2023-03-23T11:09:52.858Z,14.5
2023-03-23T11:19:59.048Z,14.2
2023-03-23T11:30:05.264Z,14.9
2023-03-23T11:40:11.634Z,15.7
2023-03-23T11:50:17.798Z,15.6
2023-03-23T12:00:23.968Z,15.5
2023-03-23T12:10:30.175Z,15.4
2023-03-23T12:20:36.522Z,15.1
2023-03-23T12:30:42.864Z,15.2
2023-03-23T12:40:48.069Z,16
2023-03-23T12:50:54.110Z,16.1
2023-03-23T13:01:00.294Z,16.2
2023-03-23T13:11:06.597Z,15.7
2023-03-23T13:21:12.796Z,15.6
2023-03-23T13:31:19.100Z,16.1
2023-03-23T13:41:25.281Z,16.1
2023-03-23T13:51:31.567Z,15.8
2023-03-23T14:01:37.653Z,15.4
2023-03-23T14:11:43.838Z,15.3
2023-03-23T14:21:50.021Z,15.3
2023-03-23T14:31:56.480Z,15.1
2023-03-23T14:42:02.570Z,14.7
2023-03-23T14:52:07.961Z,14.7
2023-03-23T15:02:14.157Z,15
2023-03-23T15:12:20.247Z,15.2
2023-03-23T15:22:26.612Z,15.5
2023-03-23T15:32:32.825Z,15.2
2023-03-23T15:42:39.050Z,15
2023-03-23T15:52:45.240Z,15
2023-03-23T16:02:51.455Z,14.9
2023-03-23T16:12:57.629Z,14.6
2023-03-23T16:23:03.827Z,14.5
2023-03-23T16:33:10.053Z,14.1
2023-03-23T16:43:16.081Z,13.8
2023-03-23T16:53:22.329Z,13.6
2023-03-23T17:03:27.735Z,13.4
2023-03-23T17:13:33.860Z,13.2
2023-03-23T17:23:40.119Z,13.2
2023-03-23T17:33:46.345Z,13.1
2023-03-23T17:43:52.549Z,13
2023-03-23T17:53:58.705Z,12.9
2023-03-23T18:04:04.768Z,12.8
2023-03-23T18:14:11.095Z,12.8
2023-03-23T18:24:17.192Z,12.7
2023-03-23T18:34:23.510Z,12.6
2023-03-23T18:44:29.798Z,12.6
2023-03-23T18:54:36.033Z,12.5
2023-03-23T19:04:42.183Z,12.4
2023-03-23T19:14:47.401Z,12.3
2023-03-23T19:24:53.665Z,12.4
2023-03-23T19:34:59.799Z,12.5
2023-03-23T19:45:06.068Z,12.6
2023-03-23T19:55:12.266Z,12.6
2023-03-23T20:05:18.375Z,12.7
2023-03-23T20:15:24.583Z,12.7
2023-03-23T20:25:30.683Z,12.6
2023-03-23T20:35:36.887Z,12.7
2023-03-23T20:45:43.267Z,12.8
2023-03-23T20:55:49.327Z,12.8
2023-03-23T21:05:55.581Z,12.7
2023-03-23T21:16:01.719Z,12.6
2023-03-23T21:26:06.966Z,12.5
2023-03-23T21:36:13.265Z,12.3
2023-03-23T21:46:19.510Z,12.3
2023-03-23T21:56:25.575Z,12.3
2023-03-23T22:06:31.980Z,12.2
2023-03-23T22:16:38.100Z,11.9
2023-03-23T22:26:44.295Z,11.8
2023-03-23T22:36:50.404Z,11.8
2023-03-23T22:46:56.811Z,11.8
2023-03-23T22:57:02.918Z,11.9
2023-03-23T23:07:09.128Z,11.9
2023-03-23T23:17:15.213Z,11.8
2023-03-23T23:27:21.563Z,11.7
2023-03-23T23:37:27.770Z,11.5
2023-03-23T23:47:32.942Z,11.5
2023-03-23T23:57:39.110Z,11.4
